Time;durP1;ratioP1;P1;durP2;ratioP2;P2;SDS_P1;SDS_P2;PMS_P1;PMS_P2;Temp;Humidity;BMP_temperature;BMP_pressure;BME280_temperature;BME280_humidity;BME280_pressure;Samples;Min_cycle;Max_cycle;Signal;HPM_P1;HPM_P2
2023/08/28 00:00:38;;;;;;;17.43;16.40;;;16.20;99.90;;;;;;5020340;28;20312;-45
2023/08/28 00:03:04;;;;;;;17.20;16.17;;;16.20;99.90;;;;;;5019820;28;20189;-42
2023/08/28 00:05:31;;;;;;;18.00;16.90;;;16.20;99.90;;;;;;5021916;28;20429;-44
2023/08/28 00:07:56;;;;;;;18.43;17.10;;;16.20;99.90;;;;;;5021619;28;20190;-40
2023/08/28 00:10:23;;;;;;;17.97;16.77;;;16.20;99.90;;;;;;5020695;28;21001;-43
2023/08/28 00:12:49;;;;;;;18.10;17.00;;;16.20;99.90;;;;;;5017369;28;20641;-43
2023/08/28 00:15:14;;;;;;;17.40;16.40;;;16.20;99.90;;;;;;5019735;28;20452;-42
2023/08/28 00:17:40;;;;;;;18.30;17.10;;;16.20;99.90;;;;;;5019207;28;21095;-44
2023/08/28 00:20:09;;;;;;;17.70;16.60;;;16.20;99.90;;;;;;5018538;28;20182;-40
2023/08/28 00:22:38;;;;;;;17.87;16.77;;;16.20;99.90;;;;;;5019640;28;20432;-43
2023/08/28 00:25:06;;;;;;;18.20;17.00;;;16.10;99.90;;;;;;5017035;28;20534;-42
2023/08/28 00:27:32;;;;;;;16.87;15.77;;;16.10;99.90;;;;;;5020865;28;20467;-44
2023/08/28 00:29:58;;;;;;;18.00;16.70;;;16.10;99.90;;;;;;5020918;28;20464;-40
2023/08/28 00:32:25;;;;;;;17.57;16.47;;;16.10;99.90;;;;;;5018729;28;20243;-43
2023/08/28 00:34:52;;;;;;;18.27;17.00;;;16.10;99.90;;;;;;5019071;28;20190;-40
2023/08/28 00:37:18;;;;;;;17.50;16.40;;;16.10;99.90;;;;;;5019451;28;20842;-41
2023/08/28 00:39:43;;;;;;;17.60;16.40;;;16.10;99.90;;;;;;5020502;28;20440;-45
2023/08/28 00:42:09;;;;;;;16.77;15.80;;;16.10;99.90;;;;;;5018242;28;20237;-41
2023/08/28 00:44:35;;;;;;;17.63;16.40;;;16.10;99.90;;;;;;5017856;28;20178;-43
2023/08/28 00:47:00;;;;;;;18.50;17.30;;;16.10;99.90;;;;;;5020437;28;20449;-42
2023/08/28 00:49:27;;;;;;;18.20;17.00;;;16.10;99.90;;;;;;5020461;28;20648;-41
2023/08/28 00:51:53;;;;;;;17.00;16.00;;;16.00;99.90;;;;;;5018719;28;20198;-41
2023/08/28 00:54:19;;;;;;;18.20;17.00;;;16.00;99.90;;;;;;5019835;28;20890;-43
2023/08/28 00:56:45;;;;;;;18.13;16.90;;;16.00;99.90;;;;;;5019961;28;20652;-42
2023/08/28 00:59:10;;;;;;;18.30;16.90;;;16.00;99.90;;;;;;5019613;28;20433;-49
2023/08/28 01:01:36;;;;;;;18.13;16.40;;;16.00;99.90;;;;;;5019638;28;20431;-44
2023/08/28 01:04:02;;;;;;;17.63;16.60;;;16.00;99.90;;;;;;5017750;28;20194;-43
2023/08/28 01:06:36;;;;;;;17.77;16.67;;;16.00;99.90;;;;;;5019257;28;20223;-41
2023/08/28 01:09:09;;;;;;;17.00;16.00;;;16.00;99.90;;;;;;5019168;28;20495;-46
2023/08/28 01:11:45;;;;;;;17.37;16.27;;;16.00;99.90;;;;;;5011782;28;20479;-45
2023/08/28 01:14:31;;;;;;;17.70;16.50;;;16.00;99.90;;;;;;5019165;28;20437;-42
2023/08/28 01:17:03;;;;;;;18.87;17.40;;;16.00;99.90;;;;;;5018876;28;22500;-45
2023/08/28 01:19:37;;;;;;;18.30;17.10;;;16.00;99.90;;;;;;5017956;28;20429;-44
2023/08/28 01:22:05;;;;;;;18.40;17.20;;;16.00;99.90;;;;;;5018999;28;20445;-43
2023/08/28 01:24:31;;;;;;;19.20;17.80;;;16.00;99.90;;;;;;5019355;28;20557;-46
2023/08/28 01:26:58;;;;;;;18.33;17.03;;;16.00;99.90;;;;;;5018423;28;20842;-41
2023/08/28 01:29:26;;;;;;;18.50;17.40;;;16.00;99.90;;;;;;5019166;28;20256;-44
2023/08/28 01:31:52;;;;;;;19.10;17.90;;;16.00;99.90;;;;;;5017603;28;20437;-43
2023/08/28 01:34:17;;;;;;;19.33;18.13;;;16.00;99.90;;;;;;5018549;28;20442;-41
2023/08/28 01:36:48;;;;;;;20.03;18.73;;;16.00;99.90;;;;;;5019807;28;20217;-42
2023/08/28 01:39:32;;;;;;;20.30;18.80;;;16.00;99.90;;;;;;5018037;28;20174;-41
2023/08/28 01:41:58;;;;;;;20.30;18.90;;;15.90;99.90;;;;;;5018417;28;20477;-41
2023/08/28 01:44:30;;;;;;;19.50;18.30;;;15.90;99.90;;;;;;5019939;28;20523;-46
2023/08/28 01:46:57;;;;;;;19.43;18.33;;;16.00;99.90;;;;;;5020397;28;20171;-42
2023/08/28 01:49:28;;;;;;;20.80;18.93;;;16.00;99.90;;;;;;5023567;28;20425;-42
2023/08/28 01:51:53;;;;;;;19.80;18.50;;;15.90;99.90;;;;;;5020646;28;20429;-41
2023/08/28 01:54:19;;;;;;;19.70;18.40;;;15.90;99.90;;;;;;5023941;28;20773;-42
2023/08/28 01:56:45;;;;;;;20.23;18.93;;;15.90;99.90;;;;;;5024023;28;20194;-44
2023/08/28 01:59:11;;;;;;;19.50;18.20;;;15.80;99.90;;;;;;5024228;28;20194;-42
2023/08/28 02:01:36;;;;;;;18.33;17.20;;;15.80;99.90;;;;;;5023052;28;20417;-41
2023/08/28 02:04:02;;;;;;;20.40;18.97;;;15.80;99.90;;;;;;5023507;28;20885;-42
2023/08/28 02:06:28;;;;;;;19.80;18.40;;;15.70;99.90;;;;;;5023554;28;20236;-41
2023/08/28 02:08:53;;;;;;;19.20;18.00;;;15.70;99.90;;;;;;5021108;28;20268;-42
2023/08/28 02:11:19;;;;;;;19.30;18.00;;;15.70;99.90;;;;;;5020622;28;20193;-43
2023/08/28 02:13:45;;;;;;;18.53;17.33;;;15.60;99.90;;;;;;5022951;28;20209;-41
2023/08/28 02:16:10;;;;;;;18.37;17.17;;;15.60;99.90;;;;;;5023016;28;20198;-42
2023/08/28 02:18:36;;;;;;;18.90;17.70;;;15.60;99.90;;;;;;5022480;28;20660;-41
2023/08/28 02:21:01;;;;;;;20.50;19.10;;;15.60;99.90;;;;;;5022022;28;20952;-41
2023/08/28 02:23:28;;;;;;;19.97;18.47;;;15.50;99.90;;;;;;5021709;28;20241;-43
2023/08/28 02:25:54;;;;;;;18.90;17.60;;;15.60;99.90;;;;;;5024015;28;20644;-41
2023/08/28 02:28:20;;;;;;;20.70;19.00;;;15.60;99.90;;;;;;5023645;28;20425;-44
2023/08/28 02:30:46;;;;;;;19.57;17.93;;;15.50;99.90;;;;;;5022605;28;20194;-41
2023/08/28 02:33:13;;;;;;;19.87;18.33;;;15.50;99.90;;;;;;5022709;28;21163;-41
2023/08/28 02:35:39;;;;;;;19.37;18.07;;;15.50;99.90;;;;;;5021515;28;21107;-45
2023/08/28 02:38:08;;;;;;;19.43;18.13;;;15.50;99.90;;;;;;5022985;28;20461;-41
2023/08/28 02:40:35;;;;;;;19.23;17.93;;;15.50;99.90;;;;;;5022638;28;20501;-43
2023/08/28 02:43:05;;;;;;;19.30;17.80;;;15.40;99.90;;;;;;5021667;28;20844;-41
2023/08/28 02:45:32;;;;;;;18.30;17.17;;;15.40;99.90;;;;;;5022215;28;20421;-42
2023/08/28 02:47:58;;;;;;;18.57;17.37;;;15.40;99.90;;;;;;5023035;28;20421;-40
2023/08/28 02:50:24;;;;;;;19.33;17.87;;;15.40;99.90;;;;;;5022542;28;20464;-41
2023/08/28 02:52:49;;;;;;;19.30;17.90;;;15.40;99.90;;;;;;5021582;28;20194;-39
2023/08/28 02:55:15;;;;;;;17.70;16.60;;;15.40;99.90;;;;;;5020904;28;20232;-45
2023/08/28 02:57:40;;;;;;;19.13;17.83;;;15.40;99.90;;;;;;5021334;28;20785;-43
2023/08/28 03:00:07;;;;;;;18.63;17.07;;;15.40;99.90;;;;;;5020356;28;20191;-44
2023/08/28 03:02:32;;;;;;;19.20;17.80;;;15.40;99.90;;;;;;5020431;28;20641;-42
2023/08/28 03:04:58;;;;;;;19.33;18.03;;;15.40;99.90;;;;;;5019569;28;20437;-43
2023/08/28 03:07:23;;;;;;;19.80;18.60;;;15.40;99.90;;;;;;5021569;28;20309;-45
2023/08/28 03:09:49;;;;;;;19.33;17.97;;;15.40;99.90;;;;;;5022787;28;20190;-43
2023/08/28 03:12:15;;;;;;;20.10;18.80;;;15.40;99.90;;;;;;5021439;28;20283;-43
2023/08/28 03:14:40;;;;;;;19.30;17.83;;;15.40;99.90;;;;;;5021293;28;20202;-42
2023/08/28 03:17:06;;;;;;;19.97;18.37;;;15.40;99.90;;;;;;5021905;28;20205;-42
2023/08/28 03:19:31;;;;;;;18.60;17.40;;;15.40;99.90;;;;;;5022308;28;21147;-42
2023/08/28 03:21:57;;;;;;;18.90;17.70;;;15.40;99.90;;;;;;5021476;28;20182;-40
2023/08/28 03:24:23;;;;;;;18.30;17.00;;;15.40;99.90;;;;;;5020723;28;20238;-40
2023/08/28 03:26:48;;;;;;;18.37;17.10;;;15.40;99.90;;;;;;5020874;28;20235;-40
2023/08/28 03:29:14;;;;;;;17.33;16.13;;;15.40;99.90;;;;;;5022249;28;20422;-41
2023/08/28 03:31:40;;;;;;;17.80;16.60;;;15.40;99.90;;;;;;5021211;28;21156;-43
2023/08/28 03:34:05;;;;;;;18.27;17.07;;;15.40;99.90;;;;;;5022039;28;20214;-44
2023/08/28 03:36:31;;;;;;;18.60;17.20;;;15.30;99.90;;;;;;5021171;28;20536;-41
2023/08/28 03:38:57;;;;;;;18.13;16.90;;;15.40;99.90;;;;;;5021334;28;20206;-41
2023/08/28 03:41:22;;;;;;;17.17;15.97;;;15.30;99.90;;;;;;5021535;28;20448;-42
2023/08/28 03:43:48;;;;;;;19.57;18.17;;;15.30;99.90;;;;;;5021861;28;20179;-40
2023/08/28 03:46:13;;;;;;;19.10;17.80;;;15.30;99.90;;;;;;5021283;28;20178;-41
2023/08/28 03:48:39;;;;;;;19.30;18.10;;;15.30;99.90;;;;;;5020421;28;20197;-43
2023/08/28 03:51:05;;;;;;;18.13;16.90;;;15.30;99.90;;;;;;5020993;28;20198;-41
2023/08/28 03:53:30;;;;;;;19.67;18.37;;;15.30;99.90;;;;;;5021831;28;20189;-41
2023/08/28 03:55:56;;;;;;;18.73;17.60;;;15.30;99.90;;;;;;5020353;28;20186;-41
2023/08/28 03:58:22;;;;;;;18.63;17.33;;;15.30;99.90;;;;;;5019852;28;20260;-42
2023/08/28 04:00:50;;;;;;;20.00;18.60;;;15.30;99.90;;;;;;5020402;28;20178;-42
2023/08/28 04:03:16;;;;;;;20.03;18.67;;;15.30;99.90;;;;;;5020005;28;20182;-40
2023/08/28 04:05:42;;;;;;;20.20;18.80;;;15.20;99.90;;;;;;5020670;28;20459;-41
2023/08/28 04:08:08;;;;;;;20.33;18.93;;;15.20;99.90;;;;;;5016555;28;20185;-42
2023/08/28 04:10:34;;;;;;;19.90;18.50;;;15.20;99.90;;;;;;5020659;28;20444;-43
2023/08/28 04:12:59;;;;;;;19.40;18.00;;;15.20;99.90;;;;;;5021236;28;20201;-43
2023/08/28 04:15:25;;;;;;;19.27;17.77;;;15.20;99.90;;;;;;5021574;28;20187;-42
2023/08/28 04:17:50;;;;;;;19.37;18.00;;;15.10;99.90;;;;;;5020325;28;20210;-42
2023/08/28 04:20:16;;;;;;;19.47;18.03;;;15.10;99.90;;;;;;5020261;28;20709;-45
2023/08/28 04:22:43;;;;;;;18.60;17.40;;;15.20;99.90;;;;;;5015248;28;20660;-44
2023/08/28 04:25:10;;;;;;;19.07;17.77;;;15.20;99.90;;;;;;5017784;28;20264;-41
2023/08/28 04:27:37;;;;;;;19.17;17.87;;;15.20;99.90;;;;;;5021172;28;20417;-44
2023/08/28 04:30:03;;;;;;;20.23;18.83;;;15.20;99.90;;;;;;5019813;28;20445;-48
2023/08/28 04:32:29;;;;;;;19.57;18.17;;;15.20;99.90;;;;;;5017528;28;20506;-43
2023/08/28 04:34:55;;;;;;;19.10;17.80;;;15.30;99.90;;;;;;5019029;28;20437;-41
2023/08/28 04:37:22;;;;;;;22.20;20.50;;;15.20;99.90;;;;;;5020605;28;20222;-43
2023/08/28 04:39:47;;;;;;;20.40;19.00;;;15.30;99.90;;;;;;5020293;28;21625;-42
2023/08/28 04:42:14;;;;;;;20.33;18.93;;;15.30;99.90;;;;;;5015048;28;20436;-43
2023/08/28 04:44:40;;;;;;;20.70;19.20;;;15.30;99.90;;;;;;5018529;28;20185;-41
2023/08/28 04:47:05;;;;;;;20.90;19.43;;;15.30;99.90;;;;;;5019402;28;20436;-44
2023/08/28 04:49:31;;;;;;;20.20;18.57;;;15.30;99.90;;;;;;5020943;28;20308;-42
2023/08/28 04:51:57;;;;;;;20.43;18.87;;;15.40;99.90;;;;;;5021183;28;20661;-41
2023/08/28 04:54:22;;;;;;;21.00;19.50;;;15.40;99.90;;;;;;5020435;28;20757;-41
2023/08/28 04:56:48;;;;;;;19.87;18.47;;;15.40;99.90;;;;;;5021155;28;20201;-43
2023/08/28 04:59:14;;;;;;;21.03;19.53;;;15.50;99.90;;;;;;5020968;28;20182;-42
2023/08/28 05:01:40;;;;;;;20.47;18.70;;;15.50;99.90;;;;;;5019976;28;20751;-43
2023/08/28 05:04:06;;;;;;;19.60;18.30;;;15.50;99.90;;;;;;5021021;28;20610;-42
2023/08/28 05:06:32;;;;;;;18.00;16.80;;;15.60;99.90;;;;;;5020724;28;20183;-41
2023/08/28 05:08:57;;;;;;;17.87;16.77;;;15.60;99.90;;;;;;5020747;28;20425;-42
2023/08/28 05:11:23;;;;;;;20.00;18.60;;;15.60;99.90;;;;;;5020814;28;20210;-40
2023/08/28 05:13:49;;;;;;;19.33;18.03;;;15.60;99.90;;;;;;5020620;28;20201;-41
2023/08/28 05:16:14;;;;;;;19.17;17.77;;;15.60;99.90;;;;;;5020583;28;20192;-41
2023/08/28 05:18:40;;;;;;;18.83;17.53;;;15.70;99.90;;;;;;5020276;28;20245;-45
2023/08/28 05:21:06;;;;;;;19.37;18.07;;;15.70;99.90;;;;;;5020678;28;20605;-43
2023/08/28 05:23:32;;;;;;;20.00;18.60;;;15.80;99.90;;;;;;5021358;28;20222;-41
2023/08/28 05:25:58;;;;;;;18.90;17.50;;;15.80;99.90;;;;;;5024248;28;20190;-43
2023/08/28 05:28:23;;;;;;;18.27;17.07;;;15.80;99.90;;;;;;5024545;28;20224;-41
2023/08/28 05:30:49;;;;;;;17.67;16.33;;;15.80;99.90;;;;;;5024072;28;20864;-42
2023/08/28 05:33:15;;;;;;;19.87;18.40;;;15.80;99.90;;;;;;5024257;28;20186;-44
2023/08/28 05:35:41;;;;;;;18.90;17.70;;;15.70;99.90;;;;;;5024684;28;20671;-43
2023/08/28 05:38:10;;;;;;;18.70;17.50;;;15.70;99.90;;;;;;5024174;28;20234;-43
2023/08/28 05:40:36;;;;;;;18.73;17.53;;;15.70;99.90;;;;;;5024256;28;20777;-41
2023/08/28 05:43:01;;;;;;;18.87;17.47;;;15.70;99.90;;;;;;5024398;28;20447;-42
2023/08/28 05:45:28;;;;;;;18.30;16.97;;;15.80;99.90;;;;;;5023900;28;20518;-44
2023/08/28 05:47:54;;;;;;;18.23;17.00;;;15.80;99.90;;;;;;5023457;28;20277;-42
2023/08/28 05:50:19;;;;;;;17.30;16.20;;;15.80;99.90;;;;;;5023902;28;20413;-42
2023/08/28 05:52:45;;;;;;;17.90;16.70;;;15.80;99.90;;;;;;5023711;28;20191;-41
2023/08/28 05:55:11;;;;;;;17.30;16.27;;;15.90;99.90;;;;;;5022884;28;20218;-41
2023/08/28 05:57:36;;;;;;;17.03;15.83;;;15.90;99.90;;;;;;5022960;28;20747;-39
2023/08/28 06:00:05;;;;;;;17.20;15.87;;;15.90;99.90;;;;;;5023445;28;20194;-40
2023/08/28 06:02:31;;;;;;;16.90;15.90;;;15.90;99.90;;;;;;5022580;28;20608;-40
2023/08/28 06:04:57;;;;;;;16.47;15.57;;;16.00;99.90;;;;;;5022942;28;20409;-43
2023/08/28 06:07:22;;;;;;;16.23;15.23;;;16.00;99.90;;;;;;5023419;28;21044;-41
2023/08/28 06:09:48;;;;;;;15.60;14.60;;;15.90;99.90;;;;;;5023322;28;20224;-41
2023/08/28 06:12:14;;;;;;;14.73;13.83;;;15.90;99.90;;;;;;5023281;28;20217;-42
2023/08/28 06:14:39;;;;;;;14.93;13.80;;;15.90;99.90;;;;;;5023442;28;20183;-42
2023/08/28 06:17:06;;;;;;;16.00;15.00;;;15.90;99.90;;;;;;5023262;28;20186;-41
2023/08/28 06:19:32;;;;;;;15.30;14.30;;;15.90;99.90;;;;;;5022879;28;20210;-40
2023/08/28 06:22:04;;;;;;;14.50;13.47;;;15.90;99.90;;;;;;5021818;28;20523;-41
2023/08/28 06:24:31;;;;;;;14.80;13.80;;;15.90;99.90;;;;;;5022665;28;20222;-41
2023/08/28 06:26:57;;;;;;;14.50;13.63;;;15.90;99.90;;;;;;5022669;28;20417;-42
2023/08/28 06:29:23;;;;;;;13.47;12.57;;;15.90;99.90;;;;;;5022491;28;21081;-40
2023/08/28 06:31:49;;;;;;;13.87;13.07;;;16.00;99.90;;;;;;5022525;28;20178;-40
2023/08/28 06:34:15;;;;;;;13.50;12.80;;;16.00;99.90;;;;;;5022002;28;20445;-43
2023/08/28 06:36:41;;;;;;;14.20;13.40;;;16.00;99.90;;;;;;5022888;28;20183;-40
2023/08/28 06:39:07;;;;;;;13.17;12.37;;;16.10;99.90;;;;;;5022859;28;20676;-42
2023/08/28 06:41:33;;;;;;;13.73;13.03;;;16.10;99.90;;;;;;5022215;28;20608;-42
2023/08/28 06:44:00;;;;;;;13.70;13.00;;;16.10;99.90;;;;;;5022953;28;20190;-39
2023/08/28 06:46:26;;;;;;;14.13;13.23;;;16.20;99.90;;;;;;5022765;28;21446;-42
2023/08/28 06:48:52;;;;;;;13.27;12.57;;;16.20;99.90;;;;;;5022581;28;20421;-40
2023/08/28 06:51:19;;;;;;;12.73;12.13;;;16.30;99.90;;;;;;5023085;28;21365;-40
2023/08/28 06:53:45;;;;;;;13.10;12.50;;;16.40;99.90;;;;;;5022339;28;20471;-41
2023/08/28 06:56:10;;;;;;;14.30;13.60;;;16.40;99.90;;;;;;5021921;28;20449;-42
2023/08/28 06:58:36;;;;;;;13.30;12.60;;;16.40;99.90;;;;;;5022163;28;20555;-40
2023/08/28 07:01:02;;;;;;;13.40;12.70;;;16.50;99.90;;;;;;5021700;28;20198;-41
2023/08/28 07:03:27;;;;;;;13.63;12.83;;;16.50;99.90;;;;;;5023023;28;20191;-40
2023/08/28 07:05:53;;;;;;;13.30;12.60;;;16.50;99.90;;;;;;5021611;28;20191;-41
2023/08/28 07:08:19;;;;;;;13.83;13.13;;;16.60;99.90;;;;;;5022071;28;20274;-40
2023/08/28 07:10:44;;;;;;;14.37;13.57;;;16.60;99.90;;;;;;5022347;28;20213;-40
2023/08/28 07:13:10;;;;;;;13.73;13.10;;;16.70;99.90;;;;;;5020045;28;20236;-40
2023/08/28 07:15:35;;;;;;;14.50;13.80;;;16.70;99.90;;;;;;5022199;28;20190;-40
2023/08/28 07:18:01;;;;;;;13.87;13.00;;;16.70;99.90;;;;;;5022202;28;20285;-41
2023/08/28 07:20:26;;;;;;;14.07;13.23;;;16.80;99.90;;;;;;5022328;28;20187;-40
2023/08/28 07:22:55;;;;;;;13.17;12.43;;;16.80;99.90;;;;;;5020694;28;20190;-40
2023/08/28 07:25:22;;;;;;;14.53;13.50;;;16.90;99.90;;;;;;5021740;28;20200;-40
2023/08/28 07:27:48;;;;;;;14.33;13.53;;;16.90;99.90;;;;;;5021805;28;20908;-41
2023/08/28 07:30:14;;;;;;;13.90;13.10;;;16.90;99.90;;;;;;5019353;28;21349;-42
2023/08/28 07:32:39;;;;;;;13.90;13.10;;;16.90;99.90;;;;;;5020604;28;20420;-41
2023/08/28 07:35:06;;;;;;;14.03;13.33;;;16.90;99.90;;;;;;5021852;28;20193;-42
2023/08/28 07:37:36;;;;;;;14.37;13.67;;;17.00;99.90;;;;;;5021047;28;20349;-41
2023/08/28 07:40:04;;;;;;;13.53;12.83;;;17.00;99.90;;;;;;5021536;28;21391;-42
2023/08/28 07:42:29;;;;;;;14.30;13.50;;;17.10;99.90;;;;;;5022521;28;20417;-44
2023/08/28 07:44:55;;;;;;;13.50;12.70;;;17.10;99.90;;;;;;5021080;28;20497;-42
2023/08/28 07:47:21;;;;;;;13.57;12.87;;;17.10;99.90;;;;;;5019768;28;20182;-41
2023/08/28 07:49:46;;;;;;;12.80;12.20;;;17.10;99.90;;;;;;5020149;28;20194;-45
2023/08/28 07:52:12;;;;;;;13.07;12.37;;;17.10;99.90;;;;;;5020502;28;20182;-42
2023/08/28 07:54:38;;;;;;;14.00;13.00;;;17.20;99.90;;;;;;5018605;28;20432;-41
2023/08/28 07:57:04;;;;;;;13.77;12.97;;;17.30;99.90;;;;;;5017507;28;20217;-41
2023/08/28 07:59:31;;;;;;;12.70;12.00;;;17.30;99.90;;;;;;5018931;28;20181;-41
2023/08/28 08:01:57;;;;;;;12.63;11.93;;;17.30;99.90;;;;;;5019126;28;20473;-42
2023/08/28 08:04:23;;;;;;;14.03;13.27;;;17.40;99.90;;;;;;5021259;28;20423;-43
2023/08/28 08:06:49;;;;;;;13.57;12.87;;;17.40;99.90;;;;;;5020371;28;20433;-42
2023/08/28 08:09:14;;;;;;;14.10;13.30;;;17.40;99.90;;;;;;5020176;28;20178;-45
2023/08/28 08:11:40;;;;;;;13.60;12.90;;;17.40;99.90;;;;;;5020916;28;20557;-42
2023/08/28 08:14:06;;;;;;;12.70;12.00;;;17.50;99.90;;;;;;5020893;28;20190;-42
2023/08/28 08:16:31;;;;;;;12.87;12.17;;;17.50;99.90;;;;;;5021349;28;20192;-44
2023/08/28 08:18:57;;;;;;;12.97;12.33;;;17.60;99.90;;;;;;5020853;28;20317;-41
2023/08/28 08:21:22;;;;;;;12.50;11.83;;;17.60;99.90;;;;;;5020964;28;20280;-42
2023/08/28 08:23:49;;;;;;;12.57;11.87;;;17.70;99.90;;;;;;5020094;28;20230;-43
2023/08/28 08:26:15;;;;;;;11.77;11.20;;;17.80;99.90;;;;;;5019264;28;20201;-42
2023/08/28 08:28:41;;;;;;;12.70;12.10;;;17.90;99.90;;;;;;5018930;28;20429;-42
2023/08/28 08:31:07;;;;;;;12.63;12.03;;;18.00;99.90;;;;;;5020656;28;20436;-43
2023/08/28 08:33:32;;;;;;;12.20;11.60;;;18.10;99.90;;;;;;5020890;28;20838;-46
2023/08/28 08:35:58;;;;;;;12.50;11.90;;;18.20;99.90;;;;;;5020702;28;20467;-42
2023/08/28 08:38:24;;;;;;;12.77;12.07;;;18.40;99.90;;;;;;5020636;28;20727;-42
2023/08/28 08:40:52;;;;;;;12.90;12.20;;;18.50;99.90;;;;;;5018793;28;20178;-43
2023/08/28 08:43:18;;;;;;;11.90;11.30;;;18.60;99.90;;;;;;5020105;28;20194;-44
2023/08/28 08:45:44;;;;;;;12.20;11.50;;;18.70;99.90;;;;;;5019689;28;20409;-44
2023/08/28 08:48:16;;;;;;;12.60;12.00;;;18.70;99.90;;;;;;5020836;28;20576;-44
2023/08/28 08:50:43;;;;;;;11.90;11.30;;;18.80;99.90;;;;;;5020313;28;20417;-50
2023/08/28 08:53:17;;;;;;;12.43;11.73;;;18.80;99.90;;;;;;5020068;28;20442;-42
2023/08/28 08:55:47;;;;;;;11.73;11.13;;;18.90;99.90;;;;;;5019142;28;20847;-39
2023/08/28 08:58:17;;;;;;;11.63;11.13;;;18.90;99.90;;;;;;5021032;28;21376;-41
2023/08/28 09:00:43;;;;;;;11.93;11.33;;;19.00;99.90;;;;;;5020508;28;20442;-43
2023/08/28 09:03:10;;;;;;;13.27;12.47;;;19.20;99.90;;;;;;5018287;28;20429;-40
2023/08/28 09:05:36;;;;;;;12.53;11.93;;;19.40;99.90;;;;;;5010606;28;20441;-41
2023/08/28 09:08:05;;;;;;;12.57;11.97;;;19.60;99.90;;;;;;5017448;28;20432;-41
2023/08/28 09:10:31;;;;;;;12.57;11.97;;;19.70;99.90;;;;;;5017675;28;20432;-40
2023/08/28 09:12:56;;;;;;;14.00;13.27;;;19.70;99.90;;;;;;5019058;28;20562;-43
2023/08/28 09:15:24;;;;;;;13.77;12.97;;;19.70;99.90;;;;;;5018283;28;20436;-45
2023/08/28 09:17:50;;;;;;;12.43;11.87;;;19.60;99.90;;;;;;5014610;28;20232;-45
2023/08/28 09:20:16;;;;;;;12.63;12.03;;;19.60;99.90;;;;;;5011296;28;20413;-42
2023/08/28 09:22:50;;;;;;;12.30;11.70;;;19.60;99.90;;;;;;5010908;28;20171;-41
2023/08/28 09:25:16;;;;;;;11.87;11.37;;;19.60;99.90;;;;;;5019458;28;20576;-42
2023/08/28 09:27:47;;;;;;;13.03;12.37;;;19.50;99.90;;;;;;5016063;28;20425;-41
2023/08/28 09:30:36;;;;;;;12.70;12.10;;;19.50;99.90;;;;;;5007540;28;20429;-41
2023/08/28 09:33:04;;;;;;;11.90;11.37;;;19.50;99.90;;;;;;5010776;28;20409;-41
2023/08/28 09:35:41;;;;;;;12.67;12.00;;;19.40;99.90;;;;;;5011330;28;20513;-41
2023/08/28 09:38:08;;;;;;;11.87;11.37;;;19.40;99.90;;;;;;5010791;28;21338;-42
2023/08/28 09:40:41;;;;;;;12.47;11.87;;;19.40;99.90;;;;;;5010711;28;20423;-43
2023/08/28 09:43:14;;;;;;;12.13;11.63;;;19.30;99.90;;;;;;5010852;28;20414;-43
2023/08/28 09:45:44;;;;;;;11.37;10.87;;;19.20;99.90;;;;;;5015374;28;20428;-41
2023/08/28 09:48:10;;;;;;;12.47;11.97;;;19.20;99.90;;;;;;5029035;28;20872;-42
2023/08/28 09:50:39;;;;;;;13.00;12.40;;;19.10;99.90;;;;;;5026211;28;20475;-41
2023/08/28 09:53:08;;;;;;;12.77;12.07;;;19.00;99.90;;;;;;5025710;28;20433;-58
2023/08/28 09:55:38;;;;;;;13.13;12.43;;;19.00;99.90;;;;;;5018965;28;20468;-55
2023/08/28 09:58:10;;;;;;;12.47;11.87;;;19.00;99.90;;;;;;5019186;28;20460;-57
2023/08/28 10:00:41;;;;;;;13.40;12.70;;;18.90;99.90;;;;;;5017856;28;20421;-56
2023/08/28 10:03:08;;;;;;;12.37;11.80;;;18.90;99.90;;;;;;5021869;28;20484;-55
2023/08/28 10:05:39;;;;;;;13.30;12.70;;;18.80;99.90;;;;;;5020147;28;20488;-56
2023/08/28 10:08:07;;;;;;;13.33;12.50;;;18.70;99.90;;;;;;5018441;28;20486;-55
2023/08/28 10:10:38;;;;;;;12.67;12.07;;;18.60;99.90;;;;;;5013642;28;21959;-57
2023/08/28 10:13:06;;;;;;;13.13;12.53;;;18.50;99.90;;;;;;5022248;28;21589;-56
2023/08/28 10:15:33;;;;;;;13.73;13.03;;;18.50;99.90;;;;;;5020719;28;20447;-55
2023/08/28 10:18:09;;;;;;;14.10;13.40;;;18.40;99.90;;;;;;5011515;28;20618;-57
2023/08/28 10:20:36;;;;;;;14.30;13.60;;;18.30;99.90;;;;;;5020415;28;20425;-57
2023/08/28 10:23:03;;;;;;;13.80;13.10;;;18.20;99.90;;;;;;5010425;28;20422;-54
2023/08/28 10:25:29;;;;;;;14.20;13.50;;;18.10;99.90;;;;;;5020986;28;20504;-57
2023/08/28 10:27:58;;;;;;;15.43;14.63;;;18.00;99.90;;;;;;5021228;28;20904;-56
2023/08/28 10:30:26;;;;;;;15.73;14.93;;;17.90;99.90;;;;;;5021231;28;20445;-57
2023/08/28 10:32:54;;;;;;;15.00;14.27;;;17.80;99.90;;;;;;5016840;28;20429;-56
2023/08/28 10:35:21;;;;;;;16.00;14.90;;;17.80;99.90;;;;;;5003128;28;20814;-55
2023/08/28 10:37:49;;;;;;;16.33;15.50;;;17.70;99.90;;;;;;5017402;28;20465;-56
2023/08/28 10:40:17;;;;;;;15.50;14.67;;;17.50;99.90;;;;;;5020817;28;20421;-56
2023/08/28 10:42:44;;;;;;;15.93;15.13;;;17.40;99.90;;;;;;5019172;28;20410;-57
2023/08/28 10:45:09;;;;;;;16.23;15.43;;;17.30;99.90;;;;;;5030829;28;20425;-57
2023/08/28 10:47:37;;;;;;;16.40;15.50;;;17.20;99.90;;;;;;5028528;28;20437;-58
2023/08/28 10:50:07;;;;;;;16.70;15.70;;;17.00;99.90;;;;;;5029643;28;20182;-56
2023/08/28 10:52:33;;;;;;;16.47;15.60;;;16.90;99.90;;;;;;5030863;28;20877;-55
2023/08/28 10:55:05;;;;;;;17.90;16.90;;;16.80;99.90;;;;;;5031635;28;20423;-56
2023/08/28 10:57:31;;;;;;;17.00;16.10;;;16.50;99.90;;;;;;5034738;28;20452;-55
2023/08/28 11:00:02;;;;;;;16.97;16.00;;;16.30;99.90;;;;;;5043434;28;20410;-55
2023/08/28 11:03:06;;;;;;;17.77;16.77;;;16.20;99.90;;;;;;5031703;28;20531;-55
2023/08/28 11:05:35;;;;;;;17.73;16.53;;;16.00;99.90;;;;;;5033791;28;20620;-50
2023/08/28 11:08:04;;;;;;;18.03;17.03;;;15.90;99.90;;;;;;5018685;28;20426;-51
2023/08/28 11:10:30;;;;;;;17.63;16.63;;;15.90;99.90;;;;;;5011421;28;20418;-52
2023/08/28 11:13:03;;;;;;;17.73;16.63;;;15.90;99.90;;;;;;5012635;28;20853;-55
2023/08/28 11:15:39;;;;;;;17.80;16.70;;;15.70;99.90;;;;;;5032245;28;20417;-56
2023/08/28 11:18:20;;;;;;;19.03;17.93;;;15.70;99.90;;;;;;5024563;28;20807;-52
2023/08/28 11:21:00;;;;;;;18.50;17.40;;;15.70;99.90;;;;;;5014816;28;20748;-53
2023/08/28 11:23:36;;;;;;;18.10;17.07;;;15.70;99.90;;;;;;5011211;28;20490;-50
2023/08/28 11:26:06;;;;;;;19.67;18.57;;;15.60;99.90;;;;;;5033032;28;20429;-53
2023/08/28 11:28:43;;;;;;;19.70;18.40;;;15.50;99.90;;;;;;5030794;28;20466;-55
2023/08/28 11:31:09;;;;;;;19.43;18.23;;;15.50;99.90;;;;;;5034352;28;20496;-54
2023/08/28 11:33:52;;;;;;;19.93;18.73;;;15.50;99.90;;;;;;5024946;28;20414;-50
2023/08/28 11:36:21;;;;;;;17.80;16.80;;;15.60;99.90;;;;;;5039437;28;20440;-52
2023/08/28 11:38:48;;;;;;;18.40;17.30;;;15.60;99.90;;;;;;5033169;28;20461;-54
2023/08/28 11:41:14;;;;;;;20.23;18.63;;;15.70;99.90;;;;;;5030830;28;20445;-51
2023/08/28 11:43:41;;;;;;;18.73;17.43;;;15.80;99.90;;;;;;5025497;28;20424;-53
2023/08/28 11:46:08;;;;;;;17.97;16.93;;;15.80;99.90;;;;;;5030254;28;21260;-52
2023/08/28 11:48:39;;;;;;;20.37;18.90;;;15.90;99.90;;;;;;5014874;28;20524;-54
2023/08/28 11:51:07;;;;;;;19.50;18.30;;;16.00;99.90;;;;;;5032553;28;20778;-50
2023/08/28 11:53:37;;;;;;;18.77;17.70;;;16.10;99.90;;;;;;5017721;28;20422;-55
2023/08/28 11:56:04;;;;;;;18.90;17.80;;;16.10;99.90;;;;;;5025928;28;20436;-52
2023/08/28 11:58:30;;;;;;;19.70;18.50;;;16.10;99.90;;;;;;5028372;28;20469;-54
2023/08/28 12:00:57;;;;;;;19.50;18.30;;;16.20;99.90;;;;;;5035006;28;20500;-49
2023/08/28 12:03:23;;;;;;;18.90;17.70;;;16.20;99.90;;;;;;5020826;28;20406;-54
2023/08/28 12:05:48;;;;;;;19.63;18.43;;;16.20;99.90;;;;;;5028288;28;20418;-54
2023/08/28 12:08:14;;;;;;;20.73;19.43;;;16.20;99.90;;;;;;5018464;28;20551;-54
2023/08/28 12:10:40;;;;;;;20.10;18.70;;;16.20;99.90;;;;;;5028124;28;20186;-55
2023/08/28 12:13:06;;;;;;;20.20;18.80;;;16.20;99.90;;;;;;5029595;28;20423;-53
2023/08/28 12:15:33;;;;;;;19.10;17.83;;;16.20;99.90;;;;;;5029563;28;20436;-54
2023/08/28 12:18:03;;;;;;;19.03;17.93;;;16.20;99.90;;;;;;5029852;28;20210;-52
2023/08/28 12:20:36;;;;;;;19.30;18.13;;;16.30;99.90;;;;;;5029388;28;20434;-48
2023/08/28 12:23:02;;;;;;;18.43;17.43;;;16.30;99.90;;;;;;5026111;28;20508;-56
2023/08/28 12:25:35;;;;;;;19.40;18.27;;;16.30;99.90;;;;;;5025645;28;20457;-52
2023/08/28 12:28:08;;;;;;;19.53;18.30;;;16.30;99.90;;;;;;5017390;28;20422;-53